Time;durP1;ratioP1;P1;durP2;ratioP2;P2;SDS_P1;SDS_P2;PMS_P1;PMS_P2;Temp;Humidity;BMP_temperature;BMP_pressure;BME280_temperature;BME280_humidity;BME280_pressure;Samples;Min_cycle;Max_cycle;Signal;HPM_P1;HPM_P2
2020/12/31 00:02:23;;;;;;;19.60;14.83;;;3.90;99.90;;;;;;5118556;27;37986;-81
2020/12/31 00:04:49;;;;;;;17.17;12.53;;;4.00;99.90;;;;;;5136284;27;40934;-80
2020/12/31 00:07:15;;;;;;;19.60;15.03;;;4.00;99.90;;;;;;5127184;27;39975;-80
2020/12/31 00:09:41;;;;;;;17.73;13.20;;;4.00;99.90;;;;;;5121938;27;39031;-78
2020/12/31 00:12:08;;;;;;;18.80;14.37;;;3.90;99.90;;;;;;5113098;27;39105;-78
2020/12/31 00:14:34;;;;;;;19.73;15.13;;;3.90;99.90;;;;;;5123046;27;39541;-80
2020/12/31 00:17:00;;;;;;;20.40;16.00;;;3.90;99.90;;;;;;5141781;27;38546;-82
2020/12/31 00:19:26;;;;;;;23.33;17.47;;;4.00;99.90;;;;;;5142008;27;48426;-79
2020/12/31 00:21:52;;;;;;;19.77;15.27;;;4.00;99.90;;;;;;5115300;27;38022;-82
2020/12/31 00:24:18;;;;;;;30.57;21.27;;;4.00;99.90;;;;;;5117541;27;39027;-80
2020/12/31 00:26:44;;;;;;;21.50;17.03;;;4.10;99.90;;;;;;5124087;27;38998;-77
2020/12/31 00:29:11;;;;;;;25.87;20.43;;;4.10;99.90;;;;;;5123957;27;38467;-79
2020/12/31 00:31:37;;;;;;;26.90;19.03;;;4.10;99.90;;;;;;5123786;27;38637;-79
2020/12/31 00:34:04;;;;;;;25.53;19.63;;;4.10;99.90;;;;;;5138000;27;38569;-77
2020/12/31 00:36:30;;;;;;;27.37;20.47;;;4.10;99.90;;;;;;5138613;27;38477;-81
2020/12/31 00:38:57;;;;;;;25.43;19.40;;;4.10;99.90;;;;;;5135189;27;38631;-78
2020/12/31 00:41:23;;;;;;;27.07;20.30;;;4.10;99.90;;;;;;5134618;27;37383;-80
2020/12/31 00:43:49;;;;;;;26.33;19.23;;;4.10;99.90;;;;;;5147709;27;38692;-80
2020/12/31 00:46:16;;;;;;;25.47;19.80;;;4.10;99.90;;;;;;5123897;27;39862;-78
2020/12/31 00:48:42;;;;;;;29.80;21.77;;;4.10;99.90;;;;;;5119055;27;38978;-80
2020/12/31 00:51:08;;;;;;;27.73;20.77;;;4.20;99.90;;;;;;5122442;27;38174;-79
2020/12/31 00:53:34;;;;;;;31.53;23.93;;;4.20;99.90;;;;;;5141395;27;38832;-79
2020/12/31 00:56:01;;;;;;;27.83;21.57;;;4.20;99.90;;;;;;5114831;27;39141;-79
2020/12/31 00:58:27;;;;;;;29.93;22.07;;;4.20;99.90;;;;;;5120898;27;38751;-80
2020/12/31 01:00:53;;;;;;;29.90;22.00;;;4.30;99.90;;;;;;5120477;27;38719;-81
2020/12/31 01:03:20;;;;;;;27.97;22.23;;;4.30;99.90;;;;;;5121254;27;40036;-79
2020/12/31 01:05:46;;;;;;;27.80;20.93;;;4.20;99.90;;;;;;5138980;27;38513;-80
2020/12/31 01:08:12;;;;;;;25.73;21.60;;;4.20;99.90;;;;;;5116098;27;39032;-79
2020/12/31 01:10:38;;;;;;;32.87;23.27;;;4.20;99.90;;;;;;5137157;27;38848;-80
2020/12/31 01:13:05;;;;;;;37.37;25.47;;;4.20;99.90;;;;;;5120359;27;40617;-78
2020/12/31 01:15:31;;;;;;;29.73;22.17;;;4.20;99.90;;;;;;5122172;27;39402;-81
2020/12/31 01:17:58;;;;;;;27.63;20.93;;;4.20;99.90;;;;;;5137358;27;38145;-81
2020/12/31 01:20:25;;;;;;;22.87;16.43;;;4.30;99.90;;;;;;5136334;27;37475;-79
2020/12/31 01:22:54;;;;;;;14.37;10.00;;;4.20;99.90;;;;;;5124952;27;40225;-83
2020/12/31 01:25:20;;;;;;;8.70;6.70;;;4.10;99.90;;;;;;5134456;27;38916;-80
2020/12/31 01:27:46;;;;;;;9.93;5.97;;;3.90;99.90;;;;;;5138554;27;40303;-80
2020/12/31 01:30:12;;;;;;;7.80;5.87;;;3.80;99.90;;;;;;5118313;27;39145;-79
2020/12/31 01:32:38;;;;;;;11.97;8.50;;;3.80;99.90;;;;;;5126445;27;37572;-82
2020/12/31 01:35:05;;;;;;;13.43;9.67;;;3.80;99.90;;;;;;5120403;27;39747;-81
2020/12/31 01:37:31;;;;;;;11.47;6.60;;;3.80;99.90;;;;;;5123540;27;38818;-81
2020/12/31 01:39:57;;;;;;;9.73;6.50;;;3.80;99.90;;;;;;5139537;27;37774;-81
2020/12/31 01:42:23;;;;;;;6.70;5.57;;;3.70;99.90;;;;;;5121293;27;39259;-82
2020/12/31 01:44:49;;;;;;;6.77;2.93;;;3.70;99.90;;;;;;5125673;27;38709;-84
2020/12/31 01:47:17;;;;;;;2.43;2.00;;;3.50;99.90;;;;;;5140284;27;38520;-82
2020/12/31 01:49:44;;;;;;;3.83;1.97;;;3.40;99.90;;;;;;5136831;27;38017;-78
2020/12/31 01:52:13;;;;;;;7.07;1.90;;;3.40;99.90;;;;;;5146440;27;38887;-83
2020/12/31 01:54:40;;;;;;;2.67;1.63;;;3.40;99.90;;;;;;5146063;27;39152;-79
2020/12/31 01:57:08;;;;;;;2.83;1.10;;;3.30;99.90;;;;;;5143141;27;37714;-79
2020/12/31 01:59:34;;;;;;;2.33;0.87;;;3.30;99.90;;;;;;5138942;27;36755;-80
2020/12/31 02:02:00;;;;;;;2.80;1.03;;;3.30;99.90;;;;;;5146226;27;40617;-79
2020/12/31 02:04:26;;;;;;;2.23;1.07;;;3.30;99.90;;;;;;5120337;27;38599;-79
2020/12/31 02:06:54;;;;;;;2.03;1.27;;;3.40;99.90;;;;;;5144660;27;38715;-79
2020/12/31 02:09:20;;;;;;;2.90;1.40;;;3.40;99.90;;;;;;5137743;27;37814;-77
2020/12/31 02:11:46;;;;;;;1.97;1.47;;;3.40;99.90;;;;;;5125657;27;39650;-76
2020/12/31 02:14:12;;;;;;;5.53;1.87;;;3.40;99.90;;;;;;5149312;27;36936;-76
2020/12/31 02:16:40;;;;;;;6.13;1.67;;;3.40;99.90;;;;;;5123718;27;37702;-78
2020/12/31 02:19:13;;;;;;;1.93;1.70;;;3.50;99.90;;;;;;5128121;27;37698;-77
2020/12/31 02:21:49;;;;;;;3.00;1.60;;;3.40;99.90;;;;;;5123662;27;41451;-76
2020/12/31 02:24:16;;;;;;;3.93;1.50;;;3.50;99.90;;;;;;5138561;27;39420;-78
2020/12/31 02:26:44;;;;;;;4.00;1.87;;;3.50;99.90;;;;;;5141662;27;38897;-77
2020/12/31 02:29:12;;;;;;;4.10;2.40;;;3.50;99.90;;;;;;5120217;27;39596;-78
2020/12/31 02:31:39;;;;;;;4.67;2.27;;;3.50;99.90;;;;;;5146705;27;38337;-76
2020/12/31 02:34:07;;;;;;;2.63;2.07;;;3.50;99.90;;;;;;5119019;27;39976;-78
2020/12/31 02:36:36;;;;;;;4.60;2.80;;;3.50;99.90;;;;;;5130631;27;38964;-76
2020/12/31 02:39:10;;;;;;;4.23;3.03;;;3.50;99.90;;;;;;5122307;27;36209;-79
2020/12/31 02:41:36;;;;;;;4.97;3.20;;;3.50;99.90;;;;;;5132430;27;38745;-80
2020/12/31 02:44:03;;;;;;;4.37;3.97;;;3.50;99.90;;;;;;5137103;27;39078;-79
2020/12/31 02:46:30;;;;;;;4.97;4.10;;;3.50;99.90;;;;;;5122044;27;39731;-78
2020/12/31 02:48:56;;;;;;;5.17;4.53;;;3.50;99.90;;;;;;5136471;27;36987;-81
2020/12/31 02:51:22;;;;;;;6.53;5.00;;;3.60;99.90;;;;;;5125647;27;37494;-77
2020/12/31 02:53:48;;;;;;;6.07;4.10;;;3.50;99.90;;;;;;5137433;27;38745;-77
2020/12/31 02:56:18;;;;;;;6.37;4.73;;;3.50;99.90;;;;;;5122316;27;39404;-78
2020/12/31 02:58:44;;;;;;;4.40;4.00;;;3.50;99.90;;;;;;5129130;27;40717;-77
2020/12/31 03:01:10;;;;;;;5.07;4.57;;;3.50;99.90;;;;;;5118055;27;37177;-78
2020/12/31 03:03:38;;;;;;;5.50;4.67;;;3.50;99.90;;;;;;5116768;27;37741;-76
2020/12/31 03:06:05;;;;;;;7.10;5.30;;;3.50;99.90;;;;;;5121266;27;37863;-80
2020/12/31 03:08:32;;;;;;;8.07;6.63;;;3.50;99.90;;;;;;5118858;27;37097;-78
2020/12/31 03:10:58;;;;;;;10.03;6.93;;;3.50;99.90;;;;;;5124969;27;38597;-79
2020/12/31 03:13:25;;;;;;;7.47;6.63;;;3.50;99.90;;;;;;5133733;27;38178;-79
2020/12/31 03:15:55;;;;;;;7.77;6.97;;;3.50;99.90;;;;;;5121767;27;37381;-79
2020/12/31 03:18:22;;;;;;;7.77;7.03;;;3.50;99.90;;;;;;5124396;27;37810;-76
2020/12/31 03:20:49;;;;;;;10.13;9.13;;;3.50;99.90;;;;;;5117725;27;39821;-77
2020/12/31 03:23:16;;;;;;;12.70;9.90;;;3.50;99.90;;;;;;5117521;27;39231;-78
2020/12/31 03:25:43;;;;;;;12.30;10.27;;;3.50;99.90;;;;;;5110847;27;36988;-79
2020/12/31 03:28:09;;;;;;;16.13;12.23;;;3.50;99.90;;;;;;5126298;27;38379;-76
2020/12/31 03:30:36;;;;;;;15.10;13.10;;;3.60;99.90;;;;;;5133989;27;39256;-78
2020/12/31 03:33:04;;;;;;;17.00;13.60;;;3.60;99.90;;;;;;5122840;27;37405;-78
2020/12/31 03:35:30;;;;;;;15.77;12.13;;;3.60;99.90;;;;;;5113136;27;36803;-78
2020/12/31 03:37:56;;;;;;;18.57;14.27;;;3.60;99.90;;;;;;5120455;27;37501;-77
2020/12/31 03:40:23;;;;;;;17.53;13.40;;;3.60;99.90;;;;;;5114984;27;39772;-82
2020/12/31 03:42:49;;;;;;;17.30;12.23;;;3.60;99.90;;;;;;5111475;27;39099;-78
2020/12/31 03:45:15;;;;;;;13.80;12.10;;;3.60;99.90;;;;;;5120648;27;38220;-76
2020/12/31 03:47:42;;;;;;;15.00;13.23;;;3.70;99.90;;;;;;5127316;27;38155;-79
2020/12/31 03:50:08;;;;;;;15.13;13.20;;;3.70;99.90;;;;;;5124473;27;38720;-78
2020/12/31 03:52:34;;;;;;;17.03;12.90;;;3.60;99.90;;;;;;5111806;27;37112;-76
2020/12/31 03:55:00;;;;;;;14.63;10.73;;;3.60;99.90;;;;;;5113818;27;38307;-79
2020/12/31 03:57:26;;;;;;;14.73;13.00;;;3.60;99.90;;;;;;5126952;27;37618;-78
2020/12/31 03:59:52;;;;;;;17.90;13.30;;;3.60;99.90;;;;;;5135793;27;38788;-85
2020/12/31 04:02:19;;;;;;;13.13;11.03;;;3.60;99.90;;;;;;5138124;27;39249;-78
2020/12/31 04:04:45;;;;;;;19.53;14.23;;;3.60;99.90;;;;;;5122621;27;39636;-82
2020/12/31 04:07:11;;;;;;;14.30;11.97;;;3.60;99.90;;;;;;5117744;27;38609;-78
2020/12/31 04:09:37;;;;;;;15.20;12.93;;;3.60;99.90;;;;;;5136057;27;39740;-79
2020/12/31 04:12:03;;;;;;;17.93;13.97;;;3.70;99.90;;;;;;5117430;27;39086;-77
2020/12/31 04:14:29;;;;;;;19.43;12.67;;;3.70;99.90;;;;;;5137510;27;37682;-77
2020/12/31 04:16:55;;;;;;;17.47;13.53;;;3.70;99.90;;;;;;5121856;27;39690;-77
2020/12/31 04:19:22;;;;;;;17.73;13.40;;;3.70;99.90;;;;;;5117928;27;39862;-77
2020/12/31 04:21:48;;;;;;;18.43;15.10;;;3.70;99.90;;;;;;5117247;27;38577;-79
2020/12/31 04:24:14;;;;;;;19.77;14.70;;;3.70;99.90;;;;;;5134331;27;39031;-76
2020/12/31 04:26:47;;;;;;;18.17;14.17;;;3.70;99.90;;;;;;5120535;27;38720;-77
2020/12/31 04:29:13;;;;;;;21.38;15.80;;;3.70;99.90;;;;;;5131494;27;38371;-79
2020/12/31 04:31:39;;;;;;;20.03;15.47;;;3.70;99.90;;;;;;5120006;27;38659;-79
2020/12/31 04:34:05;;;;;;;25.50;19.83;;;3.70;99.90;;;;;;5125053;27;38864;-81
2020/12/31 04:36:31;;;;;;;19.40;15.20;;;3.60;99.90;;;;;;5119985;27;37701;-78
2020/12/31 04:38:57;;;;;;;21.60;15.07;;;3.60;99.90;;;;;;5115040;27;38494;-79
2020/12/31 04:41:23;;;;;;;25.53;19.77;;;3.60;99.90;;;;;;5115802;27;40473;-80
2020/12/31 04:43:49;;;;;;;21.43;15.50;;;3.60;99.90;;;;;;5134181;27;38606;-79
2020/12/31 04:46:20;;;;;;;23.77;14.87;;;3.60;99.90;;;;;;5138461;27;37645;-80
2020/12/31 04:48:57;;;;;;;31.20;21.37;;;3.60;99.90;;;;;;5141136;27;39879;-78
2020/12/31 04:51:25;;;;;;;21.60;15.87;;;3.50;99.90;;;;;;5118766;27;39288;-76
2020/12/31 04:53:54;;;;;;;18.90;15.40;;;3.50;99.90;;;;;;5130581;27;38538;-77
2020/12/31 04:56:25;;;;;;;20.67;16.90;;;3.50;99.90;;;;;;5133473;27;37278;-76
2020/12/31 04:58:52;;;;;;;21.20;16.33;;;3.50;99.90;;;;;;5122236;27;38652;-76
2020/12/31 05:01:18;;;;;;;22.40;16.20;;;3.50;99.90;;;;;;5118519;27;38911;-77
2020/12/31 05:03:44;;;;;;;22.63;16.73;;;3.50;99.90;;;;;;5136645;27;38546;-77
2020/12/31 05:06:13;;;;;;;21.10;16.77;;;3.50;99.90;;;;;;5135756;27;38345;-78
2020/12/31 05:08:40;;;;;;;22.43;16.17;;;3.50;99.90;;;;;;5114505;27;37537;-77
2020/12/31 05:11:06;;;;;;;20.10;15.80;;;3.40;99.90;;;;;;5115781;27;39154;-79
2020/12/31 05:13:42;;;;;;;37.73;25.47;;;3.30;99.90;;;;;;5127332;27;39897;-79
2020/12/31 05:16:09;;;;;;;30.03;22.20;;;3.30;99.90;;;;;;5130514;27;38441;-79
2020/12/31 05:18:35;;;;;;;34.90;25.57;;;3.30;99.90;;;;;;5117735;27;38223;-78
2020/12/31 05:21:13;;;;;;;37.97;26.00;;;3.30;99.90;;;;;;5133783;27;37484;-78
2020/12/31 05:23:39;;;;;;;33.17;24.57;;;3.30;99.90;;;;;;5115891;27;37258;-76
2020/12/31 05:26:06;;;;;;;33.77;24.47;;;3.20;99.90;;;;;;5114247;27;36818;-76
2020/12/31 05:28:34;;;;;;;54.03;31.73;;;3.20;99.90;;;;;;5132954;27;38922;-81
2020/12/31 05:31:09;;;;;;;24.53;19.73;;;3.20;99.90;;;;;;5135982;27;38081;-77
2020/12/31 05:33:38;;;;;;;33.87;24.23;;;3.20;99.90;;;;;;5118365;27;47444;-77
2020/12/31 05:36:21;;;;;;;32.97;23.40;;;3.20;99.90;;;;;;5121197;27;37478;-79
2020/12/31 05:38:57;;;;;;;33.53;23.23;;;3.30;99.90;;;;;;5138001;27;38977;-77
2020/12/31 05:41:24;;;;;;;31.37;23.53;;;3.40;99.90;;;;;;5113977;27;38317;-77
2020/12/31 05:43:55;;;;;;;33.57;23.73;;;3.40;99.90;;;;;;5110802;27;37237;-76
2020/12/31 05:46:22;;;;;;;43.97;28.43;;;3.40;99.90;;;;;;5133177;27;36288;-78
2020/12/31 05:48:55;;;;;;;53.80;33.63;;;3.30;99.90;;;;;;5119873;27;37674;-78
2020/12/31 05:51:24;;;;;;;34.30;24.57;;;3.30;99.90;;;;;;5137067;27;39473;-78
2020/12/31 05:53:51;;;;;;;37.43;25.63;;;3.30;99.90;;;;;;5133016;27;39028;-77
2020/12/31 05:56:18;;;;;;;41.23;29.13;;;3.40;99.90;;;;;;5127588;27;37129;-80
2020/12/31 05:58:48;;;;;;;54.50;35.20;;;3.40;99.90;;;;;;5119183;27;39373;-78
2020/12/31 06:01:14;;;;;;;38.07;26.47;;;3.50;99.90;;;;;;5135867;27;38079;-79
2020/12/31 06:03:49;;;;;;;51.73;33.43;;;3.40;99.90;;;;;;5121565;27;37140;-76
2020/12/31 06:06:18;;;;;;;56.23;35.00;;;3.40;99.90;;;;;;5137088;27;37956;-77
2020/12/31 06:08:57;;;;;;;44.67;30.43;;;3.40;99.90;;;;;;5123970;27;39675;-76
2020/12/31 06:11:31;;;;;;;66.37;39.60;;;3.40;99.90;;;;;;5140210;27;39426;-78
2020/12/31 06:13:57;;;;;;;47.00;31.07;;;3.30;99.90;;;;;;5139250;27;38961;-80
2020/12/31 06:16:27;;;;;;;59.53;36.63;;;3.30;99.90;;;;;;5126557;27;38908;-79
2020/12/31 06:19:01;;;;;;;79.47;40.87;;;3.30;99.90;;;;;;5135954;27;38945;-83
2020/12/31 06:21:41;;;;;;;97.00;45.80;;;3.20;99.90;;;;;;5142629;27;49006;-78
2020/12/31 06:24:12;;;;;;;75.20;41.00;;;3.20;99.90;;;;;;5142178;27;38861;-76
2020/12/31 06:26:41;;;;;;;76.67;41.63;;;3.20;99.90;;;;;;5139220;27;37520;-76
2020/12/31 06:29:08;;;;;;;84.50;43.70;;;3.20;99.90;;;;;;5139096;27;38888;-77
2020/12/31 06:31:35;;;;;;;64.07;35.67;;;3.30;99.90;;;;;;5121839;27;36709;-76
2020/12/31 06:34:02;;;;;;;47.27;31.87;;;3.30;99.90;;;;;;5128704;27;40194;-80
2020/12/31 06:36:35;;;;;;;59.00;35.67;;;3.40;99.90;;;;;;5143498;27;48244;-76
2020/12/31 06:39:03;;;;;;;56.40;35.07;;;3.50;99.90;;;;;;5126258;27;39672;-78
2020/12/31 06:41:33;;;;;;;49.20;32.87;;;3.50;99.90;;;;;;5122795;27;47036;-76
2020/12/31 06:44:10;;;;;;;51.93;34.17;;;3.60;99.90;;;;;;5141070;27;37201;-78
2020/12/31 06:46:47;;;;;;;50.13;33.13;;;3.60;99.90;;;;;;5150027;27;48253;-78
2020/12/31 06:49:14;;;;;;;52.97;34.77;;;3.60;99.90;;;;;;5150435;27;39398;-79
2020/12/31 06:51:40;;;;;;;49.57;34.17;;;3.60;99.90;;;;;;5146881;27;38975;-78
2020/12/31 06:54:06;;;;;;;50.13;33.63;;;3.60;99.90;;;;;;5125380;27;37089;-77
2020/12/31 06:56:50;;;;;;;53.13;34.70;;;3.60;99.90;;;;;;5120494;27;38844;-77
2020/12/31 06:59:31;;;;;;;45.23;32.03;;;3.60;99.90;;;;;;5122937;27;39118;-77
2020/12/31 07:01:59;;;;;;;43.93;30.97;;;3.60;99.90;;;;;;5142687;27;38897;-80
2020/12/31 07:04:33;;;;;;;44.77;30.20;;;3.60;99.90;;;;;;5128673;27;37021;-81
2020/12/31 07:07:01;;;;;;;46.00;31.40;;;3.50;99.90;;;;;;5127330;27;36128;-79
2020/12/31 07:09:31;;;;;;;56.90;34.77;;;3.60;99.90;;;;;;5138331;27;48990;-79
2020/12/31 07:12:07;;;;;;;60.50;38.13;;;3.60;99.90;;;;;;5119103;27;38768;-80
2020/12/31 07:14:35;;;;;;;56.43;35.13;;;3.50;99.90;;;;;;5140405;27;47070;-77
2020/12/31 07:17:02;;;;;;;51.13;34.97;;;3.50;99.90;;;;;;5139033;27;37932;-79
2020/12/31 07:19:39;;;;;;;67.27;45.73;;;3.60;99.90;;;;;;5143428;27;38754;-80
2020/12/31 07:22:11;;;;;;;74.03;47.27;;;3.60;99.90;;;;;;5148030;27;38701;-77
2020/12/31 07:25:01;;;;;;;84.73;49.87;;;3.60;99.90;;;;;;5145932;27;37971;-80
2020/12/31 07:27:31;;;;;;;66.40;41.70;;;3.60;99.90;;;;;;5145589;27;47685;-81
2020/12/31 07:30:01;;;;;;;66.53;41.67;;;3.70;99.90;;;;;;5148315;27;38113;-80
2020/12/31 07:32:49;;;;;;;111.37;54.10;;;3.70;99.90;;;;;;5152013;27;47722;-77
2020/12/31 07:35:41;;;;;;;58.40;36.40;;;3.70;99.90;;;;;;5146947;27;37696;-77
2020/12/31 07:38:15;;;;;;;49.73;33.30;;;3.70;99.90;;;;;;5122964;27;38027;-80
2020/12/31 07:40:50;;;;;;;55.33;34.73;;;3.70;99.90;;;;;;5143202;27;38777;-78
2020/12/31 07:43:21;;;;;;;47.70;31.47;;;3.70;99.90;;;;;;5137518;27;38142;-77
2020/12/31 07:45:52;;;;;;;51.03;33.60;;;3.70;99.90;;;;;;5121093;27;38982;-82
2020/12/31 07:48:19;;;;;;;56.97;36.13;;;3.70;99.90;;;;;;5123273;27;39599;-78
2020/12/31 07:50:51;;;;;;;69.77;38.20;;;3.60;99.90;;;;;;5122915;27;39383;-81
2020/12/31 07:53:17;;;;;;;46.10;31.88;;;3.60;99.90;;;;;;5141129;27;37964;-78
2020/12/31 07:55:49;;;;;;;73.37;41.37;;;3.60;99.90;;;;;;5147957;27;38280;-84
2020/12/31 07:58:21;;;;;;;59.97;37.13;;;3.50;99.90;;;;;;5125175;27;39623;-82
2020/12/31 08:00:57;;;;;;;93.60;46.40;;;3.50;99.90;;;;;;5121487;27;39237;-78
2020/12/31 08:03:23;;;;;;;71.03;40.50;;;3.40;99.90;;;;;;5144068;27;41663;-80
2020/12/31 08:05:56;;;;;;;84.77;44.43;;;3.30;99.90;;;;;;5142613;27;38705;-77
2020/12/31 08:08:22;;;;;;;;;;;3.20;99.90;;;;;;5129646;27;36431;-77
2020/12/31 08:10:49;;;;;;;53.00;32.80;;;3.20;99.90;;;;;;5133346;27;39878;-76
2020/12/31 08:13:18;;;;;;;66.97;38.33;;;3.00;99.90;;;;;;5134982;27;39357;-78
2020/12/31 08:15:54;;;;;;;51.40;33.43;;;2.90;99.90;;;;;;5122568;27;38654;-80
2020/12/31 08:18:23;;;;;;;66.10;38.17;;;2.70;99.90;;;;;;5139762;27;37443;-77
2020/12/31 08:20:51;;;;;;;59.97;36.50;;;2.70;99.90;;;;;;5129676;27;39964;-78
2020/12/31 08:23:26;;;;;;;75.87;40.90;;;2.60;99.90;;;;;;5130200;27;40346;-77
2020/12/31 08:25:56;;;;;;;80.40;39.90;;;2.50;99.90;;;;;;5132503;27;37459;-78
2020/12/31 08:28:23;;;;;;;53.50;34.23;;;2.50;99.90;;;;;;5121591;27;37828;-81
2020/12/31 08:30:49;;;;;;;63.13;35.30;;;2.50;99.90;;;;;;5126204;27;39374;-80
2020/12/31 08:33:23;;;;;;;79.23;43.17;;;2.40;99.90;;;;;;5137581;27;38297;-77
2020/12/31 08:35:50;;;;;;;106.53;51.13;;;2.40;99.90;;;;;;5141698;27;39146;-76
2020/12/31 08:38:18;;;;;;;99.97;45.73;;;2.50;99.90;;;;;;5117401;27;38654;-78
2020/12/31 08:40:50;;;;;;;95.53;47.60;;;2.50;99.90;;;;;;5145613;27;40148;-77
2020/12/31 08:43:26;;;;;;;76.60;42.93;;;2.60;99.90;;;;;;5139300;27;38459;-80
2020/12/31 08:45:57;;;;;;;84.73;41.60;;;2.60;99.90;;;;;;5124435;27;40221;-77
2020/12/31 08:48:28;;;;;;;122.80;51.20;;;2.60;99.90;;;;;;5121796;27;38130;-79
2020/12/31 08:51:06;;;;;;;68.20;37.87;;;2.60;99.90;;;;;;5141787;27;38648;-79
2020/12/31 08:53:54;;;;;;;73.07;41.03;;;2.60;99.90;;;;;;5126970;27;47336;-79
2020/12/31 08:56:40;;;;;;;73.20;40.40;;;2.60;99.90;;;;;;5129380;27;38574;-79
2020/12/31 08:59:06;;;;;;;167.10;59.07;;;2.60;99.90;;;;;;5155126;27;38068;-77
2020/12/31 09:01:33;;;;;;;121.97;51.93;;;2.60;99.90;;;;;;5161084;27;39855;-79
2020/12/31 09:04:09;;;;;;;105.77;48.20;;;2.70;99.90;;;;;;5156609;27;38292;-77
2020/12/31 09:06:37;;;;;;;59.53;36.83;;;2.70;99.90;;;;;;5120453;27;48835;-77
2020/12/31 09:09:14;;;;;;;69.57;41.40;;;2.80;99.90;;;;;;5139370;27;36124;-79
2020/12/31 09:11:50;;;;;;;95.57;46.63;;;2.90;99.90;;;;;;5144891;27;38444;-78
2020/12/31 09:14:16;;;;;;;97.30;50.07;;;2.90;99.90;;;;;;5145677;27;37630;-76
2020/12/31 09:16:42;;;;;;;89.03;47.73;;;2.90;99.90;;;;;;5164885;27;35178;-79
2020/12/31 09:19:10;;;;;;;55.87;33.97;;;2.90;99.90;;;;;;5144659;27;37289;-90
2020/12/31 09:21:36;;;;;;;65.23;39.57;;;3.00;99.90;;;;;;5157586;27;38280;-76
2020/12/31 09:24:23;;;;;;;101.77;51.53;;;3.10;99.90;;;;;;5121569;27;38870;-83
2020/12/31 09:26:59;;;;;;;77.73;44.37;;;3.10;99.90;;;;;;5138927;27;48553;-79
2020/12/31 09:29:26;;;;;;;81.97;46.53;;;3.10;99.90;;;;;;5120279;27;36849;-80
2020/12/31 09:31:53;;;;;;;98.93;49.60;;;3.20;99.90;;;;;;5124587;27;38064;-80
2020/12/31 09:34:20;;;;;;;98.73;47.40;;;3.30;99.90;;;;;;5140959;27;38310;-77
2020/12/31 09:36:47;;;;;;;58.00;36.70;;;3.40;99.90;;;;;;5143802;27;38925;-80
2020/12/31 09:39:13;;;;;;;60.40;37.80;;;3.50;99.90;;;;;;5123378;27;39095;-81
2020/12/31 09:41:39;;;;;;;61.93;38.20;;;3.60;99.90;;;;;;5144886;27;39588;-81
2020/12/31 09:44:06;;;;;;;61.47;38.80;;;3.60;99.90;;;;;;5118229;27;37352;-80
2020/12/31 09:46:32;;;;;;;91.57;45.77;;;3.70;99.90;;;;;;5127165;27;36649;-79
2020/12/31 09:48:58;;;;;;;69.00;42.10;;;3.80;99.90;;;;;;5140759;27;38397;-77
2020/12/31 09:51:24;;;;;;;73.70;42.23;;;3.80;99.90;;;;;;5126954;27;40488;-82
2020/12/31 09:53:51;;;;;;;94.63;47.87;;;3.90;99.90;;;;;;5154022;27;38515;-83
2020/12/31 09:56:19;;;;;;;66.30;39.77;;;3.90;99.90;;;;;;5146405;27;39048;-80
2020/12/31 09:58:45;;;;;;;88.30;48.13;;;4.00;99.90;;;;;;5128563;27;38039;-80
2020/12/31 10:01:11;;;;;;;83.43;47.20;;;4.10;99.90;;;;;;5125548;27;39300;-80
2020/12/31 10:03:38;;;;;;;69.77;43.27;;;4.30;99.90;;;;;;5123113;27;37318;-79
2020/12/31 10:06:07;;;;;;;75.13;43.20;;;4.50;99.90;;;;;;5128415;27;38535;-79
2020/12/31 10:08:34;;;;;;;87.20;44.87;;;4.50;99.90;;;;;;5143168;27;37483;-77
2020/12/31 10:11:00;;;;;;;80.47;43.43;;;4.60;99.90;;;;;;5140159;27;38168;-79
2020/12/31 10:13:27;;;;;;;102.00;47.23;;;4.70;99.90;;;;;;5120430;27;40656;-78
2020/12/31 10:15:53;;;;;;;79.80;43.87;;;4.90;99.90;;;;;;5145165;27;36357;-77
2020/12/31 10:18:19;;;;;;;70.20;42.97;;;4.90;99.90;;;;;;5125324;27;36456;-79
2020/12/31 10:20:45;;;;;;;48.90;34.30;;;4.80;99.90;;;;;;5149042;27;38353;-81
2020/12/31 10:23:11;;;;;;;44.93;31.17;;;4.70;99.90;;;;;;5129573;27;39201;-79
2020/12/31 10:25:37;;;;;;;52.87;32.43;;;4.50;99.90;;;;;;5144898;27;38276;-78
2020/12/31 10:28:03;;;;;;;42.40;30.53;;;4.60;99.90;;;;;;5144741;27;38217;-79
2020/12/31 10:30:29;;;;;;;48.03;31.57;;;4.70;99.90;;;;;;5123603;27;38302;-81
2020/12/31 10:32:55;;;;;;;52.37;33.93;;;4.70;99.90;;;;;;5138724;27;40357;-79
2020/12/31 10:35:21;;;;;;;43.37;31.30;;;4.70;99.90;;;;;;5123311;27;38800;-79
2020/12/31 10:37:48;;;;;;;64.77;37.27;;;4.80;99.90;;;;;;5142356;27;37116;-78
2020/12/31 10:40:14;;;;;;;40.83;30.00;;;5.10;99.90;;;;;;5126980;27;41879;-78
2020/12/31 10:42:41;;;;;;;96.90;58.13;;;5.10;99.90;;;;;;5144743;27;39464;-79
2020/12/31 10:45:07;;;;;;;68.03;44.43;;;5.50;99.90;;;;;;5140335;27;39652;-78
2020/12/31 10:47:33;;;;;;;54.97;33.50;;;5.80;99.90;;;;;;5135536;27;36172;-76
2020/12/31 10:49:59;;;;;;;59.43;35.03;;;5.80;99.90;;;;;;5121587;27;39666;-77
2020/12/31 10:52:25;;;;;;;47.97;34.30;;;5.70;99.90;;;;;;5135271;27;38986;-77
2020/12/31 10:54:51;;;;;;;34.70;26.17;;;5.50;99.90;;;;;;5143132;27;38092;-77
2020/12/31 10:57:18;;;;;;;44.73;30.53;;;5.30;99.90;;;;;;5128123;27;39909;-77
2020/12/31 10:59:44;;;;;;;41.27;29.77;;;5.30;99.90;;;;;;5143558;27;38899;-77
2020/12/31 11:02:10;;;;;;;41.27;29.30;;;5.40;99.90;;;;;;5118621;27;40331;-77
2020/12/31 11:04:36;;;;;;;66.20;43.20;;;5.40;99.90;;;;;;5138168;27;39187;-76
2020/12/31 11:07:02;;;;;;;46.03;30.33;;;5.40;99.90;;;;;;5122260;27;37715;-82
2020/12/31 11:09:29;;;;;;;36.93;27.27;;;5.30;99.90;;;;;;5127305;27;39645;-79
2020/12/31 11:11:55;;;;;;;63.10;44.03;;;5.20;99.90;;;;;;5142719;27;38289;-78
2020/12/31 11:14:21;;;;;;;40.43;29.23;;;5.00;99.90;;;;;;5123320;27;39101;-77
2020/12/31 11:16:51;;;;;;;42.30;29.63;;;5.00;99.90;;;;;;5121357;27;37632;-80
2020/12/31 11:19:18;;;;;;;60.53;39.97;;;5.10;99.90;;;;;;5122195;27;39556;-78
2020/12/31 11:21:44;;;;;;;346.07;284.73;;;5.20;99.90;;;;;;5121217;27;40191;-81
2020/12/31 11:24:10;;;;;;;598.70;491.70;;;5.30;99.90;;;;;;5122213;27;39099;-79
2020/12/31 11:26:36;;;;;;;114.80;82.67;;;5.50;99.90;;;;;;5127864;27;37886;-77
2020/12/31 11:29:05;;;;;;;43.57;31.53;;;5.70;99.90;;;;;;5122013;27;41284;-77
2020/12/31 11:31:31;;;;;;;34.20;26.33;;;5.40;99.90;;;;;;5123483;27;47248;-83
2020/12/31 11:34:00;;;;;;;31.63;22.90;;;5.30;99.90;;;;;;5124515;27;38550;-77
2020/12/31 11:36:27;;;;;;;32.07;24.87;;;5.30;99.90;;;;;;5118312;27;37968;-77
2020/12/31 11:38:54;;;;;;;48.33;30.60;;;5.30;99.90;;;;;;5123633;27;39175;-77
2020/12/31 11:41:21;;;;;;;53.57;35.60;;;5.40;99.90;;;;;;5120407;27;39150;-82
2020/12/31 11:43:47;;;;;;;36.97;25.97;;;5.70;99.90;;;;;;5146912;27;38080;-76
2020/12/31 11:46:16;;;;;;;39.97;29.17;;;5.80;99.90;;;;;;5123728;27;39283;-79
2020/12/31 11:48:42;;;;;;;47.47;32.50;;;5.80;99.90;;;;;;5145417;27;38689;-78
2020/12/31 11:51:12;;;;;;;34.20;27.20;;;5.80;99.90;;;;;;5142744;27;38464;-78
2020/12/31 11:53:41;;;;;;;37.90;27.40;;;5.70;99.90;;;;;;5143209;27;39652;-76
2020/12/31 11:56:08;;;;;;;38.67;28.13;;;5.60;99.90;;;;;;5126975;27;38336;-80
2020/12/31 11:58:34;;;;;;;35.10;26.67;;;5.50;99.90;;;;;;5138745;27;40517;-81
2020/12/31 12:01:00;;;;;;;36.17;27.43;;;5.40;99.90;;;;;;5123370;27;39635;-78
2020/12/31 12:03:27;;;;;;;42.90;31.03;;;5.50;99.90;;;;;;5125708;27;41567;-77
2020/12/31 12:05:53;;;;;;;48.27;31.33;;;5.70;99.90;;;;;;5126578;27;39241;-80
2020/12/31 12:08:21;;;;;;;45.87;32.90;;;6.00;99.90;;;;;;5125809;27;40741;-79
2020/12/31 12:10:51;;;;;;;41.97;27.90;;;6.20;99.90;;;;;;5123672;27;38660;-80
2020/12/31 12:13:17;;;;;;;43.30;31.50;;;6.10;99.90;;;;;;5127336;27;38576;-78
2020/12/31 12:15:43;;;;;;;34.30;26.43;;;6.00;99.90;;;;;;5145806;27;38122;-78
2020/12/31 12:18:10;;;;;;;47.03;30.97;;;5.90;99.90;;;;;;5137852;27;38827;-79
2020/12/31 12:20:36;;;;;;;42.23;30.97;;;5.90;99.90;;;;;;5122756;27;40291;-78
2020/12/31 12:23:03;;;;;;;45.60;33.50;;;5.90;99.90;;;;;;5146563;27;38331;-79
2020/12/31 12:25:29;;;;;;;51.00;34.57;;;5.90;99.90;;;;;;5146127;27;38047;-79
2020/12/31 12:27:55;;;;;;;41.33;28.63;;;6.00;99.90;;;;;;5135268;27;39415;-80
2020/12/31 12:30:22;;;;;;;43.43;32.53;;;5.80;99.90;;;;;;5125199;27;38827;-80
2020/12/31 12:32:48;;;;;;;38.77;30.10;;;5.70;99.90;;;;;;5128044;27;38002;-80
2020/12/31 12:35:14;;;;;;;44.73;31.80;;;5.70;99.90;;;;;;5114975;27;38507;-78
2020/12/31 12:37:40;;;;;;;47.53;32.83;;;5.70;99.90;;;;;;5127504;27;39423;-78
2020/12/31 12:40:07;;;;;;;46.17;34.17;;;5.70;99.90;;;;;;5127346;27;39982;-79
2020/12/31 12:42:35;;;;;;;44.17;31.20;;;5.60;99.90;;;;;;5123669;27;39950;-77
2020/12/31 12:45:03;;;;;;;42.80;30.00;;;5.70;99.90;;;;;;5125697;27;39392;-78
2020/12/31 12:47:32;;;;;;;46.40;32.80;;;5.80;99.90;;;;;;5114199;27;46669;-79